Latest Weather Observations for Holsworthy (Defence)

IDN60901

Issued at 7:41 pm EST Thursday 16 August 2018 (issued every 10 minutes, with the page automatically refreshed every 10 minutes)

About weather observations | Map of Sydney area stations | Latest observations for Sydney area | Other Formats
Station Details ID: 068263 Name: HOLSWORTHY (DEFENCE) Lat: -34.08 Lon: 150.90 Height: 165.0 m
Data from the previous 72 hours. | See also: Recent months for locations in New South Wales
Date/Time
EST
Temp
°C
App
Temp
°C
Dew
Point
°C
Rel
Hum
%
Delta-T
°C
Wind Press
QNH
hPa
Press
MSL
hPa
Rain since
9am
mm
Dir  Spd
km/h
Gust
km/h
Spd
kts
Gust
kts
16/07:30pm 12.1 6.9 -2.5 36 5.7 SW 15 26 8 14 - - 0.0
16/07:00pm 12.5 8.0 -3.3 33 6.1 SW 11 20 6 11 - - 0.0
16/06:30pm 13.4 7.7 -3.8 30 6.6 SW 17 26 9 14 - - 0.0
16/06:00pm 13.6 9.3 -4.5 28 6.9 SW 9 13 5 7 - - 0.0
16/05:30pm 14.7 10.4 -5.1 25 7.5 SW 9 13 5 7 - - 0.0
16/05:00pm 16.2 10.3 -5.5 22 8.3 WSW 17 24 9 13 - - 0.0
16/04:30pm 17.2 11.7 -5.3 21 8.7 WSW 15 28 8 15 - - 0.0
16/04:00pm 17.9 12.1 -4.7 21 9.0 SW 17 28 9 15 - - 0.0
16/03:30pm 18.6 12.5 -4.1 21 9.2 WSW 19 32 10 17 - - 0.0
16/03:00pm 19.2 14.3 -3.0 22 9.2 WSW 13 24 7 13 - - 0.0
16/02:30pm 19.1 13.0 -2.5 23 9.1 WSW 20 37 11 20 - - 0.0
16/02:00pm 18.9 12.9 -1.5 25 8.7 WSW 20 33 11 18 - - 0.0
16/01:30pm 19.1 13.1 -1.4 25 8.8 WSW 20 35 11 19 - - 0.0
16/01:00pm 19.2 13.2 -1.8 24 9.0 WSW 20 41 11 22 - - 0.0
16/12:30pm 18.9 12.1 -2.1 24 8.9 WSW 24 50 13 27 - - 0.0
16/12:19pm 18.6 11.0 -2.3 24 8.8 WSW 28 50 15 27 - - 0.0
16/12:00pm 18.8 13.0 -0.1 28 8.3 WSW 20 35 11 19 - - 0.0
16/11:30am 18.9 13.5 1.4 31 7.9 WSW 19 39 10 21 - - 0.0
16/11:00am 17.6 12.1 2.0 35 7.1 SW 20 39 11 21 - - 0.0
16/10:30am 17.0 12.4 1.8 36 6.8 SW 15 28 8 15 - - 0.0
16/10:00am 17.6 12.7 2.0 35 7.1 WSW 17 32 9 17 - - 0.0
16/09:30am 17.2 12.8 2.8 38 6.6 WSW 15 24 8 13 - - 0.0
16/09:00am 16.4 11.3 2.8 40 6.2 WSW 19 39 10 21 - - 0.0
16/08:30am 15.5 11.2 3.0 43 5.7 WSW 15 32 8 17 - - 0.0
16/08:00am 14.3 10.4 3.5 48 4.9 SW 13 20 7 11 - - 0.0
16/07:30am 13.4 9.5 3.2 50 4.6 SW 13 24 7 13 - - 0.0
16/07:00am 12.5 8.3 1.8 48 4.6 SSW 13 20 7 11 - - 0.0
16/06:30am 10.3 6.6 0.1 49 4.2 S 9 17 5 9 - - 0.0
16/06:00am 9.0 5.5 -1.1 49 3.9 SSE 7 11 4 6 - - 0.0
16/05:30am 8.5 4.6 -1.3 50 3.8 SSE 9 11 5 6 - - 0.0
16/05:00am 8.1 4.3 -1.1 52 3.6 SSE 9 11 5 6 - - 0.0
16/04:30am 8.2 3.9 -1.3 51 3.7 S 11 13 6 7 - - 0.0
16/04:00am 8.9 5.0 -1.2 49 3.9 S 9 11 5 6 - - 0.0
16/03:30am 9.4 5.4 -2.2 44 4.4 S 9 13 5 7 - - 0.0
16/03:00am 12.4 8.9 -2.6 35 5.9 S 6 11 3 6 - - 0.0
16/02:30am 13.6 10.4 -3.2 31 6.6 ESE 4 7 2 4 - - 0.0
16/02:00am 14.2 10.6 -3.6 29 7.0 NW 6 11 3 6 - - 0.0
16/01:30am 15.0 12.2 -3.3 28 7.3 SW 2 6 1 3 - - 0.0
16/01:00am 16.1 12.5 -3.9 25 7.9 WNW 6 11 3 6 - - 0.0
16/12:30am 17.1 12.9 -3.6 24 8.3 NW 9 20 5 11 - - 0.0
16/12:00am 17.7 12.4 -3.7 23 8.7 NW 15 24 8 13 - - 0.0
 
Date/Time
EST
Temp
°C
App
Temp
°C
Dew
Point
°C
Rel
Hum
%
Delta-T
°C
Wind Press
QNH
hPa
Press
MSL
hPa
Rain since
9am
mm
Dir  Spd
km/h
Gust
km/h
Spd
kts
Gust
kts
15/11:30pm 17.8 13.6 -3.6 23 8.7 NW 9 20 5 11 - - 0.0
15/11:00pm 17.1 12.9 -3.6 24 8.3 NNW 9 20 5 11 - - 0.0
15/10:30pm 17.5 12.2 -3.3 24 8.5 NNW 15 33 8 18 - - 0.0
15/10:00pm 16.2 12.7 -2.8 27 7.7 N 6 9 3 5 - - 0.0
15/09:30pm 16.6 12.2 -2.5 27 7.8 N 11 15 6 8 - - 0.0
15/09:00pm 16.5 12.5 -2.5 27 7.8 N 9 15 5 8 - - 0.0
15/08:30pm 17.5 13.4 -2.7 25 8.3 N 9 15 5 8 - - 0.0
15/08:00pm 17.2 12.8 -2.4 26 8.1 N 11 17 6 9 - - 0.0
15/07:30pm 16.1 12.2 -1.5 30 7.3 N 9 13 5 7 - - 0.0
15/07:00pm 17.0 13.1 -1.6 28 7.8 NNW 9 17 5 9 - - 0.0
15/06:30pm 17.6 14.1 -2.6 25 8.3 NNW 6 13 3 7 - - 0.0
15/06:00pm 18.4 14.5 -4.9 20 9.3 W 7 13 4 7 - - 0.0
15/05:30pm 19.8 13.9 -5.9 17 10.1 W 17 32 9 17 - - 0.0
15/05:00pm 21.1 14.5 -6.5 15 10.9 W 20 41 11 22 - - 0.0
15/04:30pm 22.9 16.7 -5.1 15 11.6 WNW 19 35 10 19 - - 0.0
15/04:00pm 23.6 17.0 -7.4 12 12.3 WNW 20 39 11 21 - - 0.0
15/03:30pm 24.4 17.5 -5.8 13 12.5 WNW 22 37 12 20 - - 0.0
15/03:00pm 24.6 17.6 -6.7 12 12.8 WNW 22 44 12 24 - - 0.0
15/02:30pm 24.6 17.0 -5.6 13 12.6 WNW 26 48 14 26 - - 0.0
15/02:28pm 24.5 16.5 -5.7 13 12.5 WNW 28 48 15 26 - - 0.0
15/02:00pm 24.8 18.3 -5.5 13 12.7 NW 20 43 11 23 - - 0.0
15/01:30pm 24.6 18.2 -4.6 14 12.4 NW 20 41 11 22 - - 0.0
15/01:00pm 24.3 17.6 -4.0 15 12.1 WNW 22 39 12 21 - - 0.0
15/12:30pm 23.7 17.4 -3.6 16 11.7 NW 20 41 11 22 - - 0.0
15/12:03pm 23.1 15.6 -4.9 15 11.6 WNW 26 57 14 31 - - 0.0
15/12:00pm 23.4 16.3 -4.7 15 11.8 WNW 24 50 13 27 - - 0.0
15/11:30am 22.5 16.8 -3.7 17 11.1 W 17 32 9 17 - - 0.0
15/11:00am 21.2 13.0 -4.0 18 10.5 W 30 50 16 27 - - 0.0
15/10:35am 20.8 12.9 -4.4 18 10.4 W 28 54 15 29 - - 0.0
15/10:30am 20.5 12.6 -4.6 18 10.2 W 28 44 15 24 - - 0.0
15/10:12am 20.1 13.9 -3.5 20 9.8 WNW 20 57 11 31 - - 0.0
15/10:00am 18.7 14.3 0.3 29 8.2 NW 13 22 7 12 - - 0.0
15/09:30am 15.8 11.5 1.2 37 6.4 NW 13 20 7 11 - - 0.0
15/09:00am 13.5 9.7 1.8 45 5.1 NW 11 15 6 8 - - 0.0
15/08:30am 11.3 7.9 1.8 52 4.1 NW 9 15 5 8 - - 0.0
15/08:00am 9.7 6.7 2.1 59 3.2 NW 7 11 4 6 - - 0.0
15/07:30am 7.4 4.0 1.9 68 2.3 NW 9 13 5 7 - - 0.0
15/07:00am 6.5 3.5 1.8 72 1.9 NW 7 11 4 6 - - 0.0
15/06:30am 6.7 3.6 1.6 70 2.1 NW 7 11 4 6 - - 0.0
15/06:00am 6.8 3.8 1.7 70 2.1 NW 7 9 4 5 - - 0.0
15/05:30am 7.0 4.0 1.9 70 2.1 NW 7 11 4 6 - - 0.0
15/05:00am 6.6 3.7 1.7 71 2.0 NW 6 9 3 5 - - 0.0
15/04:30am 7.4 4.5 1.7 67 2.3 NW 6 9 3 5 - - 0.0
15/04:00am 7.8 5.0 1.9 66 2.4 WNW 6 9 3 5 - - 0.0
15/03:30am 7.8 5.3 1.6 65 2.6 WNW 4 4 2 2 - - 0.0
15/03:00am 8.8 6.0 1.9 62 2.9 WNW 6 9 3 5 - - 0.0
15/02:30am 9.4 6.4 2.3 61 3.0 W 7 9 4 5 - - 0.0
15/02:00am 9.2 6.4 2.1 61 3.0 WSW 6 7 3 4 - - 0.0
15/01:30am 9.6 6.8 2.2 60 3.1 WSW 6 9 3 5 - - 0.0
15/01:00am 10.6 7.8 2.2 56 3.6 WSW 6 9 3 5 - - 0.0
15/12:30am 11.2 7.5 2.2 54 3.9 SW 11 19 6 10 - - 0.0
15/12:00am 10.8 7.9 2.4 56 3.6 WSW 7 13 4 7 - - 0.0
 
Date/Time
EST
Temp
°C
App
Temp
°C
Dew
Point
°C
Rel
Hum
%
Delta-T
°C
Wind Press
QNH
hPa
Press
MSL
hPa
Rain since
9am
mm
Dir  Spd
km/h
Gust
km/h
Spd
kts
Gust
kts
14/11:30pm 10.7 8.3 2.0 55 3.7 WSW 4 13 2 7 - - 0.0
14/11:00pm 11.5 8.2 2.3 53 4.0 SSW 9 17 5 9 - - 0.0
14/10:30pm 10.8 7.5 2.4 56 3.6 SSW 9 13 5 7 - - 0.0
14/10:00pm 10.3 7.3 1.7 55 3.6 SSW 7 9 4 5 - - 0.0
14/09:30pm 11.6 8.6 2.1 52 4.1 SW 7 11 4 6 - - 0.0
14/09:00pm 11.3 8.3 2.3 54 3.9 SSW 7 11 4 6 - - 0.0
14/08:30pm 11.9 8.6 2.4 52 4.1 SSW 9 9 5 5 - - 0.0
14/08:00pm 10.8 7.9 2.4 56 3.6 S 7 7 4 4 - - 0.0
14/07:30pm 12.2 9.4 2.1 50 4.4 S 6 7 3 4 - - 0.0
14/07:00pm 13.4 11.4 2.3 47 4.9 SSW 2 4 1 2 - - 0.0
14/06:30pm 14.7 12.3 2.3 43 5.5 SSW 4 6 2 3 - - 0.0
14/06:00pm 16.5 13.9 1.0 35 6.8 NW 4 4 2 2 - - 0.0
14/05:30pm 17.9 14.9 1.0 32 7.5 NNW 6 7 3 4 - - 0.0
14/05:00pm 19.6 16.7 1.6 30 8.3 NNW 6 7 3 4 - - 0.0
14/04:30pm 21.4 18.4 1.7 27 9.2 N 7 11 4 6 - - 0.0
14/04:00pm 22.6 19.5 1.6 25 9.9 NW 7 13 4 7 - - 0.0
14/03:30pm 23.0 19.9 1.4 24 10.1 NNW 7 9 4 5 - - 0.0
14/03:00pm 22.7 19.6 1.1 24 10.0 W 7 13 4 7 - - 0.0
14/02:30pm 22.7 19.6 1.1 24 10.0 W 7 15 4 8 - - 0.0
14/02:00pm 22.5 19.3 0.9 24 10.0 WNW 7 15 4 8 - - 0.0
14/01:30pm 22.3 19.3 1.9 26 9.6 NW 7 13 4 7 - - 0.0
14/01:00pm 21.3 18.3 2.1 28 9.0 W 7 15 4 8 - - 0.0
14/12:30pm 21.0 17.3 2.3 29 8.8 W 11 19 6 10 - - 0.0
14/12:00pm 20.1 17.2 2.5 31 8.2 WNW 7 15 4 8 - - 0.0
14/11:30am 18.8 15.9 2.6 34 7.5 WSW 7 17 4 9 - - 0.0
14/11:00am 18.5 15.3 3.2 36 7.2 WNW 9 17 5 9 - - 0.0
14/10:30am 17.0 14.2 3.0 39 6.5 W 7 13 4 7 - - 0.0
14/10:00am 15.5 11.9 2.7 42 5.8 WSW 11 19 6 10 - - 0.0
14/09:30am 14.8 12.0 3.0 45 5.4 WSW 7 15 4 8 - - 0.0
14/09:00am 13.4 10.2 2.9 49 4.7 SW 9 19 5 10 - - 0.0
14/08:30am 12.2 8.6 2.9 53 4.1 SW 11 19 6 10 - - 0.0
14/08:00am 11.0 7.8 2.8 57 3.6 SW 9 15 5 8 - - 0.0
14/07:30am 9.9 6.6 2.7 61 3.1 SSW 9 15 5 8 - - 0.0
14/07:00am 9.3 6.0 2.6 63 2.9 SW 9 15 5 8 - - 0.0
14/06:30am 9.4 5.7 2.5 62 2.9 SW 11 17 6 9 - - 0.0
14/06:00am 9.7 5.3 2.8 62 3.0 SW 15 30 8 16 - - 0.0
14/05:30am 9.5 5.5 2.8 63 2.9 SW 13 28 7 15 - - 0.0
14/05:00am 9.3 5.7 2.9 64 2.8 SW 11 20 6 11 - - 0.0
14/04:30am 9.3 6.1 2.9 64 2.8 SW 9 19 5 10 - - 0.0
14/04:00am 9.6 5.2 2.9 63 2.9 SW 15 24 8 13 - - 0.0
14/03:30am 9.5 5.1 2.6 62 3.0 SW 15 24 8 13 - - 0.0
14/03:00am 9.7 6.0 2.6 61 3.1 SW 11 24 6 13 - - 0.0
14/02:30am 9.6 5.2 2.7 62 3.0 WSW 15 28 8 15 - - 0.0
14/02:00am 9.2 6.3 2.5 63 2.9 WSW 7 15 4 8 - - 0.0
14/01:30am 9.0 7.1 2.8 65 2.7 SW 2 13 1 7 - - 0.0
14/01:00am 9.2 6.6 3.0 65 2.7 WSW 6 11 3 6 - - 0.0
14/12:30am 9.5 6.9 3.0 64 2.8 SW 6 11 3 6 - - 0.0
14/12:00am 9.6 6.8 3.4 65 2.7 WSW 7 13 4 7 - - 0.0
 
Date/Time
EST
Temp
°C
App
Temp
°C
Dew
Point
°C
Rel
Hum
%
Delta-T
°C
Wind Press
QNH
hPa
Press
MSL
hPa
Rain since
9am
mm
Dir  Spd
km/h
Gust
km/h
Spd
kts
Gust
kts
13/11:30pm 9.9 6.8 3.4 64 2.9 SW 9 17 5 9 - - 0.0
13/11:00pm 9.7 7.1 3.4 65 2.8 W 6 11 3 6 - - 0.0
13/10:30pm 9.8 6.7 3.5 65 2.8 WSW 9 17 5 9 - - 0.0
13/10:00pm 9.8 7.1 3.5 65 2.8 W 7 13 4 7 - - 0.0
13/09:30pm 9.7 6.9 3.0 63 2.9 W 7 9 4 5 - - 0.0
13/09:00pm 10.2 7.4 3.0 61 3.1 WSW 7 13 4 7 - - 0.0
13/08:30pm 10.2 6.6 2.8 60 3.2 WSW 11 15 6 8 - - 0.0
13/08:00pm 10.7 7.5 3.0 59 3.4 W 9 13 5 7 - - 0.0

Latest Capital City Observations: Canberra | Sydney | Melbourne | Brisbane | Adelaide | Perth | Hobart | Darwin

Other Formats:

Comma delimited format used in spreadsheet applications
http://www.bom.gov.au/fwo/IDN60901/IDN60901.95684.axf

JavaScript Object Notation format (JSON) in row-major order
http://www.bom.gov.au/fwo/IDN60901/IDN60901.95684.json